createdAt,value
2018-10-11T00:00:21.801Z,97.00
2018-10-11T00:02:50.584Z,97.00
2018-10-11T00:05:19.349Z,97.00
2018-10-11T00:07:48.122Z,97.00
2018-10-11T00:10:16.966Z,97.00
2018-10-11T00:12:45.730Z,97.00
2018-10-11T00:15:14.518Z,96.90
2018-10-11T00:17:43.342Z,96.80
2018-10-11T00:20:12.089Z,96.80
2018-10-11T00:22:40.840Z,96.80
2018-10-11T00:25:09.639Z,96.70
2018-10-11T00:27:38.398Z,96.70
2018-10-11T00:30:07.338Z,96.60
2018-10-11T00:32:36.178Z,96.60
2018-10-11T00:35:05.058Z,96.30
2018-10-11T00:37:33.915Z,96.10
2018-10-11T00:40:02.681Z,95.80
2018-10-11T00:42:31.439Z,95.70
2018-10-11T00:45:00.372Z,95.70
2018-10-11T00:47:29.849Z,95.50
2018-10-11T00:49:58.646Z,95.90
2018-10-11T00:52:27.815Z,96.00
2018-10-11T00:54:56.582Z,96.10
2018-10-11T00:57:32.350Z,96.00
2018-10-11T01:00:02.003Z,95.90
2018-10-11T01:02:30.774Z,95.70
2018-10-11T01:04:59.587Z,95.80
2018-10-11T01:07:28.390Z,95.80
2018-10-11T01:09:57.234Z,95.80
2018-10-11T01:12:25.967Z,96.00
2018-10-11T01:14:54.827Z,96.10
2018-10-11T01:17:24.002Z,96.30
2018-10-11T01:19:52.874Z,96.30
2018-10-11T01:22:21.627Z,96.40
2018-10-11T01:24:50.510Z,96.20
2018-10-11T01:27:19.355Z,95.90
2018-10-11T01:29:48.341Z,95.90
2018-10-11T01:32:17.002Z,95.90
2018-10-11T01:34:45.786Z,96.00
2018-10-11T01:37:14.575Z,96.20
2018-10-11T01:39:43.339Z,96.20
2018-10-11T01:42:12.112Z,96.40
2018-10-11T01:44:40.898Z,96.40
2018-10-11T01:47:09.718Z,96.40
2018-10-11T01:49:38.514Z,96.50
2018-10-11T01:52:07.367Z,96.60
2018-10-11T01:54:36.174Z,96.80
2018-10-11T01:57:06.563Z,97.00
2018-10-11T01:59:35.463Z,97.20
2018-10-11T02:02:04.824Z,97.10
2018-10-11T02:04:33.622Z,97.10
2018-10-11T02:07:02.412Z,97.20
2018-10-11T02:09:31.214Z,97.30
2018-10-11T02:11:59.963Z,97.30
2018-10-11T02:14:28.735Z,97.20
2018-10-11T02:16:57.617Z,97.20
2018-10-11T02:19:26.418Z,97.30
2018-10-11T02:21:55.232Z,97.30
2018-10-11T02:24:24.027Z,97.40
2018-10-11T02:26:52.870Z,97.30
2018-10-11T02:29:21.631Z,97.40
2018-10-11T02:31:50.452Z,97.40
2018-10-11T02:34:19.210Z,97.50
2018-10-11T02:36:48.687Z,97.60
2018-10-11T02:39:18.501Z,97.80
2018-10-11T02:41:47.259Z,98.00
2018-10-11T02:44:16.050Z,98.00
2018-10-11T02:46:44.919Z,98.10
2018-10-11T02:49:13.712Z,98.00
2018-10-11T02:51:42.487Z,98.10
2018-10-11T02:54:11.350Z,98.20
2018-10-11T02:56:40.306Z,98.30
2018-10-11T02:59:19.294Z,98.30
2018-10-11T03:01:48.112Z,98.40
2018-10-11T03:04:16.949Z,98.60
2018-10-11T03:06:45.780Z,98.70
2018-10-11T03:09:14.623Z,98.90
2018-10-11T03:11:43.361Z,98.90
2018-10-11T03:14:12.197Z,98.90
2018-10-11T03:16:41.004Z,98.70
2018-10-11T03:19:09.842Z,98.60
2018-10-11T03:21:38.725Z,98.60
2018-10-11T03:24:07.466Z,98.50
2018-10-11T03:26:36.246Z,98.60
2018-10-11T03:29:05.007Z,98.60
2018-10-11T03:31:33.783Z,98.60
2018-10-11T03:34:02.586Z,98.60
2018-10-11T03:36:31.386Z,98.60
2018-10-11T03:39:00.202Z,98.60
2018-10-11T03:41:28.969Z,98.60
2018-10-11T03:43:57.734Z,98.80
2018-10-11T03:46:26.648Z,98.80
2018-10-11T03:48:55.456Z,98.80
2018-10-11T03:51:24.300Z,98.80
2018-10-11T03:53:53.128Z,98.80
2018-10-11T03:56:21.944Z,98.70
2018-10-11T03:58:50.770Z,98.60
2018-10-11T04:01:19.706Z,98.60
2018-10-11T04:03:48.522Z,98.50
2018-10-11T04:06:17.388Z,98.60
2018-10-11T04:08:46.266Z,98.60
2018-10-11T04:11:15.007Z,98.70
2018-10-11T04:13:44.112Z,98.80
2018-10-11T04:16:12.908Z,98.80
2018-10-11T04:18:41.771Z,98.80
2018-10-11T04:21:11.002Z,98.60
2018-10-11T04:23:39.783Z,98.70
2018-10-11T04:26:08.566Z,98.60
2018-10-11T04:28:38.334Z,98.60
2018-10-11T04:31:07.120Z,98.60
2018-10-11T04:33:35.934Z,98.40
2018-10-11T04:36:04.800Z,98.70
2018-10-11T04:38:33.549Z,98.60
2018-10-11T04:41:02.285Z,98.60
2018-10-11T04:43:31.074Z,98.60
2018-10-11T04:45:59.898Z,98.50
2018-10-11T04:48:28.658Z,98.40
2018-10-11T04:50:58.022Z,98.40
2018-10-11T04:53:27.370Z,98.40
2018-10-11T04:55:56.174Z,98.40
2018-10-11T04:58:24.981Z,98.60
2018-10-11T05:00:53.867Z,98.60
2018-10-11T05:03:22.687Z,98.60
2018-10-11T05:05:51.534Z,98.60
2018-10-11T05:08:20.329Z,98.60
2018-10-11T05:10:49.102Z,98.70
2018-10-11T05:13:17.915Z,98.70
2018-10-11T05:15:46.660Z,98.70
2018-10-11T05:18:17.654Z,98.70
2018-10-11T05:20:53.114Z,98.70
2018-10-11T05:23:21.900Z,98.80
2018-10-11T05:25:50.794Z,98.80
2018-10-11T05:28:19.543Z,98.90
2018-10-11T05:30:48.338Z,99.10
2018-10-11T05:33:17.114Z,99.20
2018-10-11T05:35:45.944Z,99.30
2018-10-11T05:38:14.801Z,99.20
2018-10-11T05:40:43.527Z,99.10
2018-10-11T05:43:13.035Z,99.00
2018-10-11T05:45:42.814Z,99.00
2018-10-11T05:48:11.590Z,99.00
2018-10-11T05:50:40.382Z,99.00
2018-10-11T05:53:09.194Z,99.00
2018-10-11T05:55:37.998Z,99.00
2018-10-11T05:58:06.822Z,99.10
2018-10-11T06:00:35.580Z,99.00
2018-10-11T06:03:04.803Z,98.90
2018-10-11T06:05:33.622Z,98.80
2018-10-11T06:08:02.830Z,99.20
2018-10-11T06:10:35.436Z,98.90
2018-10-11T06:13:05.435Z,98.80
2018-10-11T06:15:34.186Z,99.00
2018-10-11T06:18:03.059Z,99.00
2018-10-11T06:20:32.008Z,98.90
2018-10-11T06:23:00.822Z,98.80
2018-10-11T06:25:29.615Z,98.20
2018-10-11T06:27:58.426Z,97.70
2018-10-11T06:30:28.145Z,97.50
2018-10-11T06:32:57.166Z,97.50
2018-10-11T06:35:26.802Z,97.40
2018-10-11T06:37:55.582Z,97.30
2018-10-11T06:40:24.346Z,97.10
2018-10-11T06:42:53.152Z,97.00
2018-10-11T06:45:21.941Z,96.90
2018-10-11T06:47:52.832Z,96.80
2018-10-11T06:50:21.639Z,96.90
2018-10-11T06:52:50.557Z,96.90
2018-10-11T06:55:19.346Z,96.50
2018-10-11T06:57:48.118Z,95.50
2018-10-11T07:00:16.914Z,95.20
2018-10-11T07:02:45.714Z,95.60
2018-10-11T07:05:14.541Z,95.20
2018-10-11T07:07:43.295Z,94.70
2018-10-11T07:10:13.422Z,94.40
2018-10-11T07:12:49.275Z,94.10
2018-10-11T07:15:18.014Z,94.00
2018-10-11T07:17:46.811Z,93.40
2018-10-11T07:20:15.578Z,93.40
2018-10-11T07:22:44.378Z,93.00
2018-10-11T07:25:13.327Z,92.60
2018-10-11T07:27:42.122Z,91.90
2018-10-11T07:30:10.911Z,91.80
2018-10-11T07:32:39.678Z,91.60
2018-10-11T07:35:09.428Z,91.60
2018-10-11T07:37:38.083Z,91.90
2018-10-11T07:40:07.359Z,91.60
2018-10-11T07:42:36.139Z,91.90
2018-10-11T07:45:04.959Z,91.80
2018-10-11T07:47:33.744Z,91.80
2018-10-11T07:50:02.489Z,91.60
2018-10-11T07:52:31.281Z,91.90
2018-10-11T07:55:00.007Z,91.40
2018-10-11T07:57:28.821Z,91.60
2018-10-11T07:59:57.586Z,91.90
2018-10-11T08:02:26.399Z,92.10
2018-10-11T08:04:55.232Z,91.70
2018-10-11T08:07:24.110Z,91.40
2018-10-11T08:09:53.175Z,90.80
2018-10-11T08:12:22.046Z,90.70
2018-10-11T08:14:50.977Z,90.70
2018-10-11T08:17:20.063Z,90.40
2018-10-11T08:19:48.778Z,90.20
2018-10-11T08:22:17.562Z,88.80
2018-10-11T08:24:46.442Z,89.10
2018-10-11T08:27:15.231Z,87.70
2018-10-11T08:29:44.019Z,88.10
2018-10-11T08:32:12.885Z,87.80
2018-10-11T08:34:41.618Z,87.10
2018-10-11T08:37:10.499Z,87.80
2018-10-11T08:39:39.289Z,87.20
2018-10-11T08:42:08.277Z,86.10
2018-10-11T08:44:37.155Z,85.70
2018-10-11T08:47:05.989Z,85.70
2018-10-11T08:49:34.793Z,86.70
2018-10-11T08:52:04.250Z,87.50
2018-10-11T08:54:38.662Z,85.70
2018-10-11T08:57:07.487Z,85.20
2018-10-11T08:59:36.275Z,85.30
2018-10-11T09:02:05.063Z,86.40
2018-10-11T09:04:33.827Z,86.70
2018-10-11T09:07:02.590Z,86.20
2018-10-11T09:09:31.445Z,84.90
2018-10-11T09:12:00.190Z,85.30
2018-10-11T09:14:29.202Z,85.40
2018-10-11T09:16:58.082Z,83.00
2018-10-11T09:19:26.842Z,82.90
2018-10-11T09:21:55.613Z,82.90
2018-10-11T09:24:24.434Z,81.60
2018-10-11T09:26:53.246Z,80.70
2018-10-11T09:29:22.092Z,81.40
2018-10-11T09:31:50.891Z,80.70
2018-10-11T09:34:19.738Z,81.70
2018-10-11T09:36:49.344Z,81.60
2018-10-11T09:39:18.430Z,80.90
2018-10-11T09:41:47.206Z,82.30
2018-10-11T09:44:15.976Z,82.60
2018-10-11T09:46:44.870Z,81.90
2018-10-11T09:49:13.657Z,82.20
2018-10-11T09:51:42.544Z,81.00
2018-10-11T09:54:11.313Z,81.10
2018-10-11T09:57:48.256Z,81.80
2018-10-11T10:00:22.383Z,80.20
2018-10-11T10:02:51.643Z,81.70
2018-10-11T10:05:20.451Z,81.30
2018-10-11T10:07:49.196Z,81.60
2018-10-11T10:10:18.415Z,80.50
2018-10-11T10:12:47.190Z,79.30
2018-10-11T10:15:15.960Z,78.40
2018-10-11T10:17:45.736Z,79.10
2018-10-11T10:20:14.575Z,79.10
2018-10-11T10:22:43.329Z,77.50
2018-10-11T10:25:12.130Z,77.90
2018-10-11T10:27:40.973Z,79.20
2018-10-11T10:30:15.134Z,76.70
2018-10-11T10:32:43.878Z,77.20
2018-10-11T10:35:12.632Z,77.00
2018-10-11T10:37:41.365Z,76.00
2018-10-11T10:40:10.203Z,76.70
2018-10-11T10:42:38.988Z,76.30
2018-10-11T10:45:08.230Z,77.10
2018-10-11T10:47:37.009Z,78.00
2018-10-11T10:50:05.847Z,78.20
2018-10-11T10:52:34.668Z,78.10
2018-10-11T10:55:03.391Z,78.20
2018-10-11T10:57:32.221Z,79.30
2018-10-11T11:00:00.966Z,80.10
2018-10-11T11:02:29.811Z,79.90
2018-10-11T11:04:58.592Z,79.60
2018-10-11T11:07:27.395Z,80.80
2018-10-11T11:09:56.215Z,79.10
2018-10-11T11:12:25.055Z,77.00
2018-10-11T11:14:54.326Z,78.30
2018-10-11T11:17:23.134Z,78.30
2018-10-11T11:19:52.022Z,78.00
2018-10-11T11:22:20.821Z,77.60
2018-10-11T11:24:49.636Z,79.20
2018-10-11T11:27:18.351Z,79.40
2018-10-11T11:29:47.264Z,75.70
2018-10-11T11:32:16.027Z,76.00
2018-10-11T11:34:44.808Z,76.40
2018-10-11T11:37:13.583Z,76.50
2018-10-11T11:39:42.380Z,76.30
2018-10-11T11:42:11.554Z,74.70
2018-10-11T11:44:40.282Z,75.70
2018-10-11T11:47:09.118Z,74.80
2018-10-11T11:49:37.907Z,76.70
2018-10-11T11:52:07.030Z,74.10
2018-10-11T11:54:35.798Z,75.50
2018-10-11T11:57:04.608Z,73.90
2018-10-11T11:59:33.372Z,75.70
2018-10-11T12:02:02.154Z,73.80
2018-10-11T12:04:30.887Z,73.50
2018-10-11T12:06:59.808Z,74.20
2018-10-11T12:09:28.528Z,74.70
2018-10-11T12:11:57.318Z,74.00
2018-10-11T12:14:26.108Z,74.50
2018-10-11T12:16:54.874Z,73.70
2018-10-11T12:19:23.751Z,73.30
2018-10-11T12:21:52.486Z,72.10
2018-10-11T12:24:21.233Z,72.40
2018-10-11T12:26:50.413Z,72.20
2018-10-11T12:29:19.140Z,71.90
2018-10-11T12:31:47.946Z,69.40
2018-10-11T12:34:16.729Z,71.10
2018-10-11T12:36:45.514Z,71.40
2018-10-11T12:39:14.303Z,71.50
2018-10-11T12:41:43.116Z,72.30
2018-10-11T12:44:11.955Z,72.20
2018-10-11T12:46:41.292Z,70.90
2018-10-11T12:49:09.497Z,71.50
2018-10-11T12:51:38.295Z,72.90
2018-10-11T12:54:07.366Z,73.80
2018-10-11T12:56:36.131Z,72.50
2018-10-11T12:59:04.939Z,72.30
2018-10-11T13:01:33.746Z,72.50
2018-10-11T13:04:02.632Z,71.60
2018-10-11T13:06:31.402Z,72.10
2018-10-11T13:09:00.188Z,72.90
2018-10-11T13:11:28.919Z,72.50
2018-10-11T13:13:57.791Z,71.70
2018-10-11T13:16:26.538Z,70.30
2018-10-11T13:18:55.293Z,72.30
2018-10-11T13:21:24.045Z,70.30
2018-10-11T13:23:52.775Z,70.50
2018-10-11T13:26:21.555Z,69.80
2018-10-11T13:28:50.397Z,69.80
2018-10-11T13:31:19.135Z,69.50
2018-10-11T13:33:51.820Z,71.10
2018-10-11T13:36:16.582Z,69.30
2018-10-11T13:38:45.343Z,68.70
2018-10-11T13:41:14.272Z,67.70
2018-10-11T13:43:42.946Z,67.90
2018-10-11T13:46:11.711Z,67.90
2018-10-11T13:48:40.508Z,67.00
2018-10-11T13:51:09.298Z,67.40
2018-10-11T13:53:38.440Z,68.60
2018-10-11T13:56:07.497Z,68.20
2018-10-11T13:58:36.317Z,68.30
2018-10-11T14:01:05.063Z,68.80
2018-10-11T14:03:34.973Z,68.90
2018-10-11T14:06:04.550Z,68.30
2018-10-11T14:08:33.287Z,68.30
2018-10-11T14:11:02.058Z,66.40
2018-10-11T14:13:30.797Z,67.90
2018-10-11T14:15:59.576Z,68.20
2018-10-11T14:18:28.327Z,67.50
2018-10-11T14:20:57.129Z,67.60
2018-10-11T14:23:25.916Z,67.10
2018-10-11T14:25:54.702Z,68.00
2018-10-11T14:28:23.899Z,68.50
2018-10-11T14:30:52.633Z,69.10
2018-10-11T14:33:21.427Z,69.30
2018-10-11T14:35:50.547Z,69.70
2018-10-11T14:38:19.790Z,69.90
2018-10-11T14:40:48.655Z,70.30
2018-10-11T14:43:17.497Z,69.40
2018-10-11T14:45:46.310Z,70.00
2018-10-11T14:48:15.156Z,69.10
2018-10-11T14:50:43.941Z,67.40
2018-10-11T14:53:12.704Z,67.80
2018-10-11T14:55:41.599Z,68.40
2018-10-11T14:58:10.395Z,68.70
2018-10-11T15:00:39.234Z,68.80
2018-10-11T15:03:09.264Z,68.60
2018-10-11T15:05:38.008Z,69.80
2018-10-11T15:08:06.787Z,69.10
2018-10-11T15:10:35.660Z,68.40
2018-10-11T15:13:04.356Z,68.90
2018-10-11T15:15:33.101Z,69.80
2018-10-11T15:18:01.831Z,70.20
2018-10-11T15:20:30.614Z,70.10
2018-10-11T15:22:59.638Z,70.20
2018-10-11T15:25:28.414Z,71.10
2018-10-11T15:27:57.150Z,71.00
2018-10-11T15:30:25.978Z,72.30
2018-10-11T15:32:54.799Z,71.90
2018-10-11T15:35:23.562Z,72.00
2018-10-11T15:37:52.419Z,72.60
2018-10-11T15:40:21.218Z,72.60
2018-10-11T15:42:50.013Z,71.70
2018-10-11T15:45:18.787Z,72.20
2018-10-11T15:47:47.534Z,72.10
2018-10-11T15:50:16.274Z,73.30
2018-10-11T15:52:45.809Z,73.70
2018-10-11T15:55:14.558Z,74.30
2018-10-11T15:57:43.338Z,74.30
2018-10-11T16:00:12.127Z,74.90
2018-10-11T16:02:40.918Z,74.50
2018-10-11T16:05:09.762Z,74.30
2018-10-11T16:07:38.512Z,75.00
2018-10-11T16:10:07.400Z,75.20
2018-10-11T16:12:36.227Z,75.80
2018-10-11T16:15:05.446Z,76.20
2018-10-11T16:17:34.304Z,76.40
2018-10-11T16:20:03.063Z,77.30
2018-10-11T16:22:31.939Z,77.20
2018-10-11T16:25:00.762Z,77.80
2018-10-11T16:27:29.566Z,78.30
2018-10-11T16:29:58.354Z,78.80
2018-10-11T16:32:27.222Z,79.30
2018-10-11T16:34:56.087Z,79.80
2018-10-11T16:37:24.909Z,80.10
2018-10-11T16:39:53.666Z,80.70
2018-10-11T16:42:22.431Z,81.10
2018-10-11T16:44:51.322Z,81.60
2018-10-11T16:47:20.152Z,81.80
2018-10-11T16:49:49.032Z,82.20
2018-10-11T16:52:17.777Z,82.20
2018-10-11T16:54:46.542Z,82.30
2018-10-11T16:57:16.219Z,82.80
2018-10-11T16:59:45.294Z,83.30
2018-10-11T17:02:14.166Z,83.70
2018-10-11T17:04:42.955Z,83.90
2018-10-11T17:07:11.763Z,84.10
2018-10-11T17:09:40.563Z,84.10
2018-10-11T17:12:09.267Z,84.30
2018-10-11T17:14:38.182Z,84.10
2018-10-11T17:17:07.014Z,83.90
2018-10-11T17:19:35.819Z,84.20
2018-10-11T17:22:04.666Z,84.10
2018-10-11T17:24:33.523Z,84.10
2018-10-11T17:27:02.366Z,83.60
2018-10-11T17:29:31.125Z,83.90
2018-10-11T17:31:59.988Z,83.80
2018-10-11T17:34:29.803Z,83.50
2018-10-11T17:36:58.594Z,83.10
2018-10-11T17:39:27.695Z,83.50
2018-10-11T17:41:56.443Z,83.30
2018-10-11T17:44:25.243Z,83.40
2018-10-11T17:46:53.998Z,83.60
2018-10-11T17:49:22.795Z,83.10
2018-10-11T17:51:51.606Z,83.20
2018-10-11T17:54:21.433Z,83.50
2018-10-11T17:56:50.263Z,83.70
2018-10-11T17:59:18.968Z,83.70
2018-10-11T18:01:47.745Z,84.10
2018-10-11T18:04:16.526Z,84.60
2018-10-11T18:06:45.334Z,84.40
2018-10-11T18:09:14.166Z,84.90
2018-10-11T18:11:42.974Z,85.00
2018-10-11T18:14:12.144Z,85.20
2018-10-11T18:16:40.967Z,85.30
2018-10-11T18:19:32.539Z,85.70
2018-10-11T18:22:01.339Z,86.10
2018-10-11T18:24:31.290Z,86.10
2018-10-11T18:27:00.086Z,86.40
2018-10-11T18:29:28.887Z,86.60
2018-10-11T18:31:57.639Z,86.60
2018-10-11T18:34:26.543Z,86.90
2018-10-11T18:36:55.372Z,87.00
2018-10-11T18:39:24.166Z,86.20
2018-10-11T18:41:53.141Z,85.40
2018-10-11T18:44:22.055Z,85.50
2018-10-11T18:46:50.878Z,84.70
2018-10-11T18:49:19.676Z,85.00
2018-10-11T18:51:48.495Z,85.00
2018-10-11T18:54:17.243Z,84.60
2018-10-11T18:56:46.079Z,84.50
2018-10-11T18:59:14.914Z,84.70
2018-10-11T19:01:43.659Z,84.60
2018-10-11T19:04:12.501Z,84.70
2018-10-11T19:06:41.281Z,84.70
2018-10-11T19:09:10.134Z,84.90
2018-10-11T19:11:39.753Z,85.60
2018-10-11T19:14:08.540Z,85.70
2018-10-11T19:16:37.330Z,85.50
2018-10-11T19:19:06.079Z,85.00
2018-10-11T19:21:34.844Z,85.20
2018-10-11T19:24:04.453Z,85.60
2018-10-11T19:26:33.354Z,85.50
2018-10-11T19:29:02.119Z,85.00
2018-10-11T19:31:30.896Z,84.50
2018-10-11T19:33:59.662Z,84.60
2018-10-11T19:36:28.404Z,85.00
2018-10-11T19:38:57.166Z,85.40
2018-10-11T19:41:25.940Z,85.50
2018-10-11T19:43:54.708Z,85.30
2018-10-11T19:46:23.562Z,85.10
2018-10-11T19:48:52.451Z,85.30
2018-10-11T19:51:21.262Z,85.40
2018-10-11T19:53:50.644Z,85.50
2018-10-11T19:56:19.432Z,85.30
2018-10-11T19:58:48.198Z,85.30
2018-10-11T20:01:17.010Z,84.80
2018-10-11T20:03:45.783Z,84.90
2018-10-11T20:06:14.731Z,84.80
2018-10-11T20:08:43.482Z,85.30
2018-10-11T20:11:12.326Z,85.00
2018-10-11T20:13:41.072Z,85.20
2018-10-11T20:16:10.192Z,86.20
2018-10-11T20:18:38.983Z,86.00
2018-10-11T20:21:07.906Z,86.00
2018-10-11T20:23:36.720Z,86.70
2018-10-11T20:26:05.518Z,86.70
2018-10-11T20:28:34.302Z,87.30
2018-10-11T20:31:03.077Z,87.70
2018-10-11T20:33:31.913Z,87.50
2018-10-11T20:36:00.680Z,87.80
2018-10-11T20:38:29.439Z,88.00
2018-10-11T20:40:58.223Z,88.40
2018-10-11T20:43:27.051Z,88.80
2018-10-11T20:45:55.766Z,89.20
2018-10-11T20:48:24.574Z,89.30
2018-10-11T20:50:53.472Z,89.30
2018-10-11T20:53:22.188Z,89.40
2018-10-11T20:55:51.026Z,89.00
2018-10-11T20:58:19.816Z,88.70
2018-10-11T21:00:48.577Z,88.40
2018-10-11T21:03:17.368Z,88.40
2018-10-11T21:05:46.180Z,88.70
2018-10-11T21:08:14.923Z,88.60
2018-10-11T21:10:43.762Z,88.30
2018-10-11T21:13:12.510Z,88.40
2018-10-11T21:15:41.291Z,88.70
2018-10-11T21:18:10.098Z,88.40
2018-10-11T21:20:38.884Z,88.00
2018-10-11T21:23:07.687Z,88.10
2018-10-11T21:25:36.524Z,88.60
2018-10-11T21:28:05.650Z,88.50
2018-10-11T21:30:34.450Z,88.60
2018-10-11T21:33:04.166Z,88.70
2018-10-11T21:35:33.037Z,89.20
2018-10-11T21:38:01.831Z,88.80
2018-10-11T21:40:30.603Z,88.30
2018-10-11T21:42:59.369Z,88.20
2018-10-11T21:45:28.184Z,88.60
2018-10-11T21:47:56.982Z,88.00
2018-10-11T21:50:25.762Z,87.90
2018-10-11T21:52:54.544Z,88.60
2018-10-11T21:55:23.354Z,87.70
2018-10-11T21:57:52.210Z,87.80
2018-10-11T22:00:25.203Z,88.00
2018-10-11T22:02:54.002Z,88.40
2018-10-11T22:05:22.764Z,88.70
2018-10-11T22:07:51.618Z,88.20
2018-10-11T22:10:21.086Z,87.80
2018-10-11T22:12:49.824Z,87.20
2018-10-11T22:15:18.642Z,87.60
2018-10-11T22:17:47.548Z,87.50
2018-10-11T22:20:16.338Z,87.60
2018-10-11T22:22:45.214Z,86.90
2018-10-11T22:25:14.098Z,86.80
2018-10-11T22:27:42.922Z,87.00
2018-10-11T22:30:11.688Z,86.60
2018-10-11T22:32:40.509Z,86.30
2018-10-11T22:35:09.267Z,86.00
2018-10-11T22:37:38.047Z,86.00
2018-10-11T22:40:06.863Z,85.40
2018-10-11T22:42:35.767Z,84.90
2018-10-11T22:45:04.555Z,84.20
2018-10-11T22:47:33.338Z,83.70
2018-10-11T22:50:02.134Z,83.40
2018-10-11T22:52:30.898Z,82.50
2018-10-11T22:54:59.734Z,83.10
2018-10-11T22:57:28.523Z,82.50
2018-10-11T22:59:57.295Z,82.90
2018-10-11T23:02:26.092Z,82.50
2018-10-11T23:04:54.975Z,82.10
2018-10-11T23:07:23.883Z,83.20
2018-10-11T23:09:52.742Z,83.30
2018-10-11T23:12:21.522Z,83.00
2018-10-11T23:14:50.415Z,84.40
2018-10-11T23:17:19.110Z,83.70
2018-10-11T23:19:47.875Z,84.20
2018-10-11T23:22:16.629Z,83.50
2018-10-11T23:24:45.434Z,83.20
2018-10-11T23:27:14.191Z,83.00
2018-10-11T23:29:42.945Z,83.20
2018-10-11T23:32:11.807Z,85.10
2018-10-11T23:34:40.578Z,86.30
2018-10-11T23:37:09.629Z,87.40
2018-10-11T23:39:38.417Z,87.70
2018-10-11T23:42:07.198Z,87.80
2018-10-11T23:44:35.934Z,88.50
2018-10-11T23:47:04.764Z,87.80
2018-10-11T23:49:33.530Z,87.90
2018-10-11T23:52:02.302Z,87.20
2018-10-11T23:54:31.090Z,87.60
2018-10-11T23:56:59.855Z,87.20
2018-10-11T23:59:28.766Z,87.50
